createdAt,value
2022-09-01T00:00:50.505Z,23.1
2022-09-01T00:03:23.245Z,23
2022-09-01T00:05:56.377Z,22.9
2022-09-01T00:08:29.297Z,22.9
2022-09-01T00:11:02.207Z,22.9
2022-09-01T00:13:35.250Z,23.1
2022-09-01T00:16:08.511Z,23.1
2022-09-01T00:18:41.126Z,23.2
2022-09-01T00:21:13.443Z,23.1
2022-09-01T00:23:46.417Z,23
2022-09-01T00:26:18.576Z,23
2022-09-01T00:28:51.361Z,23.1
2022-09-01T00:31:24.467Z,23.1
2022-09-01T00:33:56.399Z,23.2
2022-09-01T00:36:28.632Z,23.2
2022-09-01T00:39:04.801Z,23.2
2022-09-01T00:41:37.211Z,23.2
2022-09-01T00:44:09.821Z,23.3
2022-09-01T00:46:56.303Z,23.4
2022-09-01T00:49:27.383Z,23.4
2022-09-01T00:51:59.948Z,23.4
2022-09-01T00:54:32.866Z,23.5
2022-09-01T00:57:05.445Z,23.6
2022-09-01T00:59:38.182Z,23.6
2022-09-01T01:02:09.319Z,23.7
2022-09-01T01:04:41.632Z,23.4
2022-09-01T01:07:14.269Z,23.4
2022-09-01T01:09:46.833Z,23.4
2022-09-01T01:12:19.640Z,23.3
2022-09-01T01:14:52.373Z,23.3
2022-09-01T01:17:25.005Z,23.3
2022-09-01T01:23:02.448Z,23.2
2022-09-01T01:25:35.666Z,23.2
2022-09-01T01:28:07.887Z,23.3
2022-09-01T01:30:40.680Z,23.3
2022-09-01T01:33:13.363Z,23.3
2022-09-01T01:35:46.305Z,23.4
2022-09-01T01:38:22.426Z,23.4
2022-09-01T01:40:54.533Z,23.5
2022-09-01T01:43:27.185Z,23.6
2022-09-01T01:45:59.845Z,23.6
2022-09-01T01:48:32.090Z,23.7
2022-09-01T01:51:04.575Z,23.7
2022-09-01T01:53:40.339Z,23.5
2022-09-01T01:56:12.542Z,23.6
2022-09-01T01:58:43.812Z,23.5
2022-09-01T02:01:16.311Z,23.5
2022-09-01T02:03:49.313Z,23.4
2022-09-01T02:06:20.183Z,23.4
2022-09-01T02:08:52.994Z,23.4
2022-09-01T02:11:26.602Z,23.3
2022-09-01T02:13:59.311Z,23.4
2022-09-01T02:16:32.095Z,23.3
2022-09-01T02:19:03.073Z,23.2
2022-09-01T02:21:35.719Z,23.1
2022-09-01T02:24:08.652Z,23
2022-09-01T02:26:41.602Z,23.1
2022-09-01T02:29:15.367Z,23.2
2022-09-01T02:31:47.882Z,23.2
2022-09-01T02:34:21.650Z,23.1
2022-09-01T02:36:54.419Z,23.2
2022-09-01T02:39:27.251Z,23.2
2022-09-01T02:41:59.777Z,23.1
2022-09-01T02:44:32.074Z,23.1
2022-09-01T02:47:05.254Z,23.1
2022-09-01T02:49:38.120Z,23
2022-09-01T02:52:14.478Z,23.1
2022-09-01T02:54:46.569Z,23.2
2022-09-01T02:57:18.711Z,23.2
2022-09-01T02:59:50.701Z,23.1
2022-09-01T03:02:22.945Z,23.1
2022-09-01T03:04:56.252Z,23.1
2022-09-01T03:07:28.633Z,23.1
2022-09-01T03:10:01.224Z,22.9
2022-09-01T03:12:33.962Z,23
2022-09-01T03:15:13.712Z,23
2022-09-01T03:17:44.757Z,23
2022-09-01T03:20:17.138Z,23
2022-09-01T03:22:49.823Z,22.9
2022-09-01T03:25:22.235Z,22.9
2022-09-01T03:27:54.612Z,22.9
2022-09-01T03:30:27.200Z,22.9
2022-09-01T03:32:59.576Z,22.9
2022-09-01T03:35:32.623Z,22.9
2022-09-01T03:38:04.809Z,22.9
2022-09-01T03:40:37.896Z,22.9
2022-09-01T03:43:10.139Z,22.9
2022-09-01T03:45:43.275Z,22.9
2022-09-01T03:48:15.663Z,22.9
2022-09-01T03:50:48.217Z,22.9
2022-09-01T03:53:20.619Z,22.8
2022-09-01T03:55:53.857Z,22.9
2022-09-01T03:58:27.103Z,22.9
2022-09-01T04:00:59.787Z,23
2022-09-01T04:03:32.391Z,22.9
2022-09-01T04:06:05.727Z,23
2022-09-01T04:08:38.204Z,23
2022-09-01T04:11:11.684Z,23
2022-09-01T04:13:44.742Z,23
2022-09-01T04:16:17.537Z,23
2022-09-01T04:18:50.114Z,23.1
2022-09-01T04:21:22.726Z,23.2
2022-09-01T04:23:55.827Z,23.1
2022-09-01T04:26:28.772Z,23.2
2022-09-01T04:29:04.659Z,23.2
2022-09-01T04:31:38.173Z,23.1
2022-09-01T04:34:11.160Z,23.1
2022-09-01T04:36:44.079Z,23.1
2022-09-01T04:39:17.605Z,23.1
2022-09-01T04:41:51.051Z,23.1
2022-09-01T04:44:24.323Z,23
2022-09-01T04:46:57.247Z,23
2022-09-01T04:49:29.940Z,23.1
2022-09-01T04:52:03.092Z,23
2022-09-01T04:54:36.906Z,23.1
2022-09-01T04:57:09.994Z,23.2
2022-09-01T04:59:43.315Z,23.3
2022-09-01T05:02:16.872Z,23.4
2022-09-01T05:04:50.044Z,23.4
2022-09-01T05:07:22.621Z,23.4
2022-09-01T05:10:02.131Z,23.4
2022-09-01T05:12:33.785Z,23.4
2022-09-01T05:15:06.408Z,23.4
2022-09-01T05:17:37.769Z,23.5
2022-09-01T05:20:10.616Z,23.5
2022-09-01T05:22:43.698Z,23.5
2022-09-01T05:25:16.831Z,23.5
2022-09-01T05:27:50.188Z,23.5
2022-09-01T05:30:22.885Z,23.5
2022-09-01T05:32:56.419Z,23.6
2022-09-01T05:35:33.630Z,23.7
2022-09-01T05:38:05.401Z,23.7
2022-09-01T05:40:38.615Z,23.6
2022-09-01T05:43:12.075Z,23.7
2022-09-01T05:46:07.865Z,23.7
2022-09-01T05:48:38.789Z,23.8
2022-09-01T05:51:51.659Z,23.8
2022-09-01T05:54:23.435Z,24
2022-09-01T05:56:55.838Z,24
2022-09-01T05:59:29.432Z,23.9
2022-09-01T06:02:02.892Z,23.7
2022-09-01T06:04:36.159Z,23.8
2022-09-01T06:07:16.691Z,23.7
2022-09-01T06:09:48.206Z,23.7
2022-09-01T06:12:21.103Z,23.6
2022-09-01T06:14:54.031Z,23.6
2022-09-01T06:17:26.871Z,23.5
2022-09-01T06:20:00.475Z,23.5
2022-09-01T06:22:33.743Z,23.5
2022-09-01T06:25:06.905Z,23.5
2022-09-01T06:27:39.834Z,23.5
2022-09-01T06:30:12.550Z,23.5
2022-09-01T06:32:46.241Z,23.4
2022-09-01T06:35:18.646Z,23.3
2022-09-01T06:37:51.880Z,23.3
2022-09-01T06:40:25.162Z,23.3
2022-09-01T06:42:58.460Z,23.3
2022-09-01T06:45:34.602Z,23.3
2022-09-01T06:48:06.534Z,23.3
2022-09-01T06:51:22.247Z,23.2
2022-09-01T06:53:52.643Z,23.4
2022-09-01T06:56:32.827Z,23.3
2022-09-01T06:59:04.371Z,23.3
2022-09-01T07:01:40.935Z,23.1
2022-09-01T07:04:14.463Z,23.1
2022-09-01T07:08:06.261Z,22.9
2022-09-01T07:12:25.868Z,22.9
2022-09-01T07:16:41.774Z,22.8
2022-09-01T07:46:36.550Z,23.4
2022-09-01T07:51:34.542Z,23
2022-09-01T07:54:07.363Z,23
2022-09-01T07:56:41.139Z,22.6
2022-09-01T07:59:16.188Z,22.5
2022-09-01T08:01:47.663Z,22
2022-09-01T08:04:20.606Z,21.7
2022-09-01T08:06:53.805Z,21.5
2022-09-01T08:09:44.844Z,21.3
2022-09-01T08:12:15.665Z,21.3
2022-09-01T08:14:47.843Z,21.3
2022-09-01T08:17:53.144Z,21.4
2022-09-01T08:20:24.466Z,21.4
2022-09-01T08:22:57.415Z,21.3
2022-09-01T08:25:30.627Z,21.2
2022-09-01T08:28:03.819Z,20.8
2022-09-01T08:30:36.663Z,20.9
2022-09-01T08:33:13.667Z,20.9
2022-09-01T08:35:44.250Z,20.9
2022-09-01T08:38:17.290Z,20.8
2022-09-01T08:40:50.149Z,20.7
2022-09-01T08:43:27.400Z,20.7
2022-09-01T08:45:59.707Z,20.7
2022-09-01T08:49:44.481Z,20.6
2022-09-01T08:52:16.269Z,20.7
2022-09-01T08:54:48.915Z,20.5
2022-09-01T08:57:21.350Z,20.5
2022-09-01T08:59:54.437Z,20.3
2022-09-01T09:02:28.255Z,20.3
2022-09-01T09:05:00.812Z,20.3
2022-09-01T09:07:33.398Z,20.3
2022-09-01T09:10:06.500Z,20.4
2022-09-01T09:12:50.018Z,20.3
2022-09-01T09:15:21.269Z,20.2
2022-09-01T09:18:01.147Z,20.2
2022-09-01T09:20:33.558Z,20.1
2022-09-01T09:23:06.796Z,20.2
2022-09-01T09:25:39.654Z,20.3
2022-09-01T09:28:13.353Z,20.2
2022-09-01T09:30:45.480Z,20.1
2022-09-01T09:33:54.473Z,20
2022-09-01T09:36:26.158Z,20.4
2022-09-01T09:38:59.958Z,20.3
2022-09-01T09:41:36.599Z,20.3
2022-09-01T09:44:11.998Z,20.2
2022-09-01T09:46:45.138Z,20.2
2022-09-01T09:49:18.093Z,20.3
2022-09-01T09:52:06.619Z,20.4
2022-09-01T09:54:39.219Z,20.5
2022-09-01T09:57:12.327Z,20.6
2022-09-01T10:00:02.318Z,20.7
2022-09-01T10:02:33.488Z,20.7
2022-09-01T10:05:06.510Z,20.7
2022-09-01T10:07:39.455Z,20.6
2022-09-01T10:10:13.928Z,20.6
2022-09-01T10:12:47.067Z,20.6
2022-09-01T10:15:19.966Z,20.6
2022-09-01T10:18:20.353Z,20.6
2022-09-01T10:21:04.879Z,20.5
2022-09-01T10:23:37.181Z,20.6
2022-09-01T10:26:15.485Z,20.6
2022-09-01T10:28:51.231Z,20.5
2022-09-01T10:31:34.064Z,20.6
2022-09-01T10:34:06.295Z,20.6
2022-09-01T10:36:38.909Z,20.6
2022-09-01T10:39:11.061Z,20.6
2022-09-01T10:41:44.001Z,20.5
2022-09-01T10:44:19.589Z,20.6
2022-09-01T10:47:02.334Z,20.6
2022-09-01T10:49:39.061Z,20.6
2022-09-01T10:52:16.712Z,20.6
2022-09-01T10:54:56.311Z,20.5
2022-09-01T10:57:31.215Z,20.5
2022-09-01T11:00:05.924Z,20.6
2022-09-01T11:03:47.798Z,20.8
2022-09-01T11:06:23.002Z,21.1
2022-09-01T11:08:57.501Z,21
2022-09-01T11:11:30.591Z,21
2022-09-01T11:14:03.549Z,21.1
2022-09-01T11:16:53.279Z,21.1
2022-09-01T11:19:28.424Z,21.2
2022-09-01T11:21:59.769Z,21.3
2022-09-01T11:24:33.287Z,21.3
2022-09-01T11:27:06.082Z,21.4
2022-09-01T11:29:39.682Z,21.3
2022-09-01T11:32:19.342Z,21.4
2022-09-01T11:34:51.234Z,21.3
2022-09-01T11:37:23.601Z,21.3
2022-09-01T11:39:59.276Z,21.3
2022-09-01T11:42:32.483Z,21.2
2022-09-01T11:45:06.468Z,21.2
2022-09-01T11:47:39.412Z,21.2
2022-09-01T11:50:12.700Z,21.2
2022-09-01T11:52:45.716Z,21.3
2022-09-01T11:55:18.456Z,21.2
2022-09-01T11:57:50.899Z,21.3
2022-09-01T12:00:23.592Z,21.1
2022-09-01T12:02:55.849Z,21.2
2022-09-01T12:05:28.736Z,21.2
2022-09-01T12:08:01.489Z,21.2
2022-09-01T12:10:33.634Z,21.3
2022-09-01T12:13:06.127Z,21.4
2022-09-01T12:16:19.430Z,21.5
2022-09-01T12:18:50.238Z,21.6
2022-09-01T12:21:22.781Z,21.6
2022-09-01T12:23:55.453Z,21.5
2022-09-01T12:26:28.055Z,21.4
2022-09-01T12:29:00.492Z,21.4
2022-09-01T12:31:33.613Z,21.4
2022-09-01T12:34:07.232Z,21.5
2022-09-01T12:36:39.839Z,21.5
2022-09-01T12:39:12.772Z,21.5
2022-09-01T12:41:45.426Z,21.7
2022-09-01T12:44:18.346Z,21.4
2022-09-01T12:46:50.927Z,21.4
2022-09-01T12:49:23.478Z,21.4
2022-09-01T12:51:56.441Z,21.3
2022-09-01T12:54:29.326Z,21.2
2022-09-01T12:57:02.425Z,21.1
2022-09-01T12:59:38.394Z,21.2
2022-09-01T13:02:10.911Z,21.2
2022-09-01T13:04:43.487Z,21.2
2022-09-01T13:07:16.020Z,21.3
2022-09-01T13:09:48.414Z,21.2
2022-09-01T13:12:20.338Z,21.3
2022-09-01T13:14:52.900Z,21.3
2022-09-01T13:17:25.657Z,21.3
2022-09-01T13:19:58.252Z,21.3
2022-09-01T13:22:30.760Z,21.3
2022-09-01T13:25:04.247Z,21.3
2022-09-01T13:27:36.802Z,21.3
2022-09-01T13:30:09.074Z,21.3
2022-09-01T13:34:10.540Z,21.3
2022-09-01T13:36:54.480Z,21.5
2022-09-01T13:39:26.400Z,21.5
2022-09-01T13:41:58.276Z,21.4
2022-09-01T13:44:31.338Z,21.2
2022-09-01T13:47:34.198Z,21.2
2022-09-01T13:50:15.559Z,21.3
2022-09-01T13:53:43.878Z,21.4
2022-09-01T13:56:16.248Z,21.4
2022-09-01T13:58:49.158Z,21.4
2022-09-01T14:01:21.057Z,21.4
2022-09-01T14:04:01.466Z,21.3
2022-09-01T14:06:32.486Z,21.3
2022-09-01T14:09:05.240Z,21.3
2022-09-01T14:11:38.788Z,21.2
2022-09-01T14:14:11.082Z,21.1
2022-09-01T14:16:43.878Z,21.2
2022-09-01T14:19:15.690Z,21.3
2022-09-01T14:21:49.171Z,21.3
2022-09-01T14:24:21.128Z,21.2
2022-09-01T14:26:53.876Z,21.2
2022-09-01T14:29:26.867Z,21.4
2022-09-01T14:31:59.187Z,21.4
2022-09-01T14:34:31.755Z,21.2
2022-09-01T14:37:04.394Z,21.2
2022-09-01T14:39:36.873Z,21.2
2022-09-01T14:42:09.308Z,21.1
2022-09-01T14:44:41.403Z,21.1
2022-09-01T14:47:21.483Z,21.1
2022-09-01T14:49:51.997Z,21.1
2022-09-01T14:52:24.545Z,21
2022-09-01T14:54:57.281Z,21
2022-09-01T14:57:39.103Z,21
2022-09-01T15:00:09.909Z,21.1
2022-09-01T15:02:42.307Z,21
2022-09-01T15:05:15.499Z,21
2022-09-01T15:07:47.807Z,21.1
2022-09-01T20:21:58.282Z,22.3
2022-09-01T20:24:29.205Z,21.9
2022-09-01T20:27:02.771Z,21.6
2022-09-01T20:29:35.389Z,21.3
2022-09-01T20:32:07.537Z,21.1
2022-09-01T20:34:40.434Z,21.1
2022-09-01T20:37:12.563Z,20.9
2022-09-01T20:39:45.216Z,20.8
2022-09-01T20:42:17.720Z,20.7
2022-09-01T20:44:50.592Z,20.6
2022-09-01T20:47:23.124Z,20.6
2022-09-01T20:49:55.495Z,20.6
2022-09-01T20:52:28.205Z,20.5
2022-09-01T20:55:01.821Z,20.5
2022-09-01T20:57:34.690Z,20.5
2022-09-01T21:00:07.594Z,20.5
2022-09-01T21:02:40.456Z,20.4
2022-09-01T21:05:12.983Z,20.5
2022-09-01T21:07:45.476Z,20.5
2022-09-01T21:10:18.204Z,20.5
2022-09-01T21:12:50.634Z,20.4
2022-09-01T21:15:23.240Z,20.3
2022-09-01T21:17:55.939Z,20.4
2022-09-01T21:20:28.688Z,20.3
2022-09-01T21:23:07.381Z,20.3
2022-09-01T21:25:41.566Z,20.4
2022-09-01T21:28:14.612Z,20.3
2022-09-01T21:30:47.463Z,20.2
2022-09-01T21:33:20.054Z,20.1
2022-09-01T21:35:52.578Z,20.1
2022-09-01T21:38:24.829Z,20.2
2022-09-01T21:40:57.512Z,20.2
2022-09-01T21:43:29.419Z,20.1
2022-09-01T21:46:02.851Z,20.1
2022-09-01T21:48:35.061Z,20
2022-09-01T21:51:07.340Z,20
2022-09-01T21:53:39.554Z,19.9
2022-09-01T21:56:12.067Z,20
2022-09-01T21:58:50.931Z,20
2022-09-01T22:01:22.611Z,20
2022-09-01T22:03:55.472Z,20
2022-09-01T22:06:27.425Z,20
2022-09-01T22:08:59.838Z,20
2022-09-01T22:11:32.388Z,20
2022-09-01T22:14:05.205Z,19.9
2022-09-01T22:16:38.077Z,19.9
2022-09-01T22:19:09.901Z,19.9
2022-09-01T22:21:42.498Z,19.9
2022-09-01T22:24:20.166Z,19.8
2022-09-01T22:26:51.952Z,19.9
2022-09-01T22:29:24.502Z,19.9
2022-09-01T22:31:57.306Z,19.9
2022-09-01T22:34:29.550Z,19.9
2022-09-01T22:37:02.105Z,19.9
2022-09-01T22:39:35.082Z,20
2022-09-01T22:42:07.639Z,20
2022-09-01T22:44:40.336Z,19.9
2022-09-01T22:47:14.269Z,20
2022-09-01T22:49:46.927Z,20.1
2022-09-01T22:52:19.474Z,20
2022-09-01T22:54:52.870Z,19.9
2022-09-01T22:57:25.251Z,20
2022-09-01T22:59:58.000Z,19.9
2022-09-01T23:02:30.089Z,19.9
2022-09-01T23:05:06.687Z,19.7
2022-09-01T23:07:40.621Z,19.8
2022-09-01T23:10:12.263Z,19.8
2022-09-01T23:12:45.471Z,19.7
2022-09-01T23:15:17.639Z,19.8
2022-09-01T23:17:50.491Z,19.7
2022-09-01T23:20:23.720Z,19.8
2022-09-01T23:22:56.206Z,19.8
2022-09-01T23:25:29.708Z,19.9
2022-09-01T23:28:02.118Z,19.9
2022-09-01T23:30:35.030Z,19.9
2022-09-01T23:33:07.982Z,19.8
2022-09-01T23:35:40.592Z,19.8
2022-09-01T23:38:13.231Z,19.8
2022-09-01T23:40:46.252Z,19.8
2022-09-01T23:43:19.188Z,19.7
2022-09-01T23:45:52.160Z,19.7
2022-09-01T23:48:25.014Z,19.7
2022-09-01T23:50:57.562Z,19.7
2022-09-01T23:53:30.560Z,19.7
2022-09-01T23:56:03.226Z,19.7
2022-09-01T23:58:35.936Z,19.6
